sensor_id;sensor_type;location;lat;lon;timestamp;P1;durP1;ratioP1;P2;durP2;ratioP2
45328;SDS011;31063;48.356;10.896;2022-10-31T18:37:58;55.13;;;35.60;;
45328;SDS011;31063;48.356;10.896;2022-10-31T18:40:24;47.43;;;36.03;;
45328;SDS011;31063;48.356;10.896;2022-10-31T18:42:50;40.93;;;31.73;;
45328;SDS011;31063;48.356;10.896;2022-10-31T18:45:15;41.63;;;33.30;;
45328;SDS011;31063;48.356;10.896;2022-10-31T18:47:41;39.77;;;31.10;;
45328;SDS011;31063;48.356;10.896;2022-10-31T18:50:07;34.70;;;29.00;;
45328;SDS011;31063;48.356;10.896;2022-10-31T18:52:32;37.40;;;28.92;;
45328;SDS011;31063;48.356;10.896;2022-10-31T18:54:58;38.03;;;30.13;;
45328;SDS011;31063;48.356;10.896;2022-10-31T18:57:23;39.53;;;31.23;;
45328;SDS011;31063;48.356;10.896;2022-10-31T18:59:50;35.83;;;26.95;;
45328;SDS011;31063;48.356;10.896;2022-10-31T19:02:16;30.17;;;25.63;;
45328;SDS011;31063;48.356;10.896;2022-10-31T19:04:42;30.17;;;25.87;;
45328;SDS011;31063;48.356;10.896;2022-10-31T19:07:07;59.50;;;46.53;;
45328;SDS011;31063;48.356;10.896;2022-10-31T19:09:33;36.90;;;32.10;;
45328;SDS011;31063;48.356;10.896;2022-10-31T19:11:59;32.05;;;26.42;;
45328;SDS011;31063;48.356;10.896;2022-10-31T19:14:25;32.17;;;25.83;;
45328;SDS011;31063;48.356;10.896;2022-10-31T19:16:50;32.47;;;25.33;;
45328;SDS011;31063;48.356;10.896;2022-10-31T19:19:16;25.97;;;22.23;;
45328;SDS011;31063;48.356;10.896;2022-10-31T19:21:43;23.85;;;20.42;;
45328;SDS011;31063;48.356;10.896;2022-10-31T19:24:09;23.53;;;21.07;;
45328;SDS011;31063;48.356;10.896;2022-10-31T19:26:35;28.10;;;22.45;;
45328;SDS011;31063;48.356;10.896;2022-10-31T19:29:01;25.23;;;21.80;;
45328;SDS011;31063;48.356;10.896;2022-10-31T19:31:27;22.85;;;20.17;;
45328;SDS011;31063;48.356;10.896;2022-10-31T19:33:52;27.90;;;23.40;;
45328;SDS011;31063;48.356;10.896;2022-10-31T19:36:18;24.30;;;21.23;;
45328;SDS011;31063;48.356;10.896;2022-10-31T19:38:46;23.48;;;20.92;;
45328;SDS011;31063;48.356;10.896;2022-10-31T19:41:14;24.60;;;21.13;;
45328;SDS011;31063;48.356;10.896;2022-10-31T19:43:44;22.85;;;20.42;;
45328;SDS011;31063;48.356;10.896;2022-10-31T19:46:10;25.70;;;22.90;;
45328;SDS011;31063;48.356;10.896;2022-10-31T19:48:37;24.33;;;20.83;;
45328;SDS011;31063;48.356;10.896;2022-10-31T19:53:30;26.08;;;23.20;;
45328;SDS011;31063;48.356;10.896;2022-10-31T19:55:57;29.38;;;24.65;;
45328;SDS011;31063;48.356;10.896;2022-10-31T19:58:23;27.33;;;23.85;;
45328;SDS011;31063;48.356;10.896;2022-10-31T20:00:49;28.70;;;24.83;;
45328;SDS011;31063;48.356;10.896;2022-10-31T20:03:14;31.33;;;25.83;;
45328;SDS011;31063;48.356;10.896;2022-10-31T20:05:40;32.27;;;27.20;;
45328;SDS011;31063;48.356;10.896;2022-10-31T20:08:11;45.00;;;34.05;;
45328;SDS011;31063;48.356;10.896;2022-10-31T20:13:19;41.35;;;32.67;;
45328;SDS011;31063;48.356;10.896;2022-10-31T20:15:45;37.00;;;27.20;;
45328;SDS011;31063;48.356;10.896;2022-10-31T20:18:11;29.73;;;26.03;;
45328;SDS011;31063;48.356;10.896;2022-10-31T20:20:36;27.50;;;24.40;;
45328;SDS011;31063;48.356;10.896;2022-10-31T20:23:02;25.53;;;22.83;;
45328;SDS011;31063;48.356;10.896;2022-10-31T20:25:27;31.17;;;25.97;;
45328;SDS011;31063;48.356;10.896;2022-10-31T20:27:55;28.33;;;22.70;;
45328;SDS011;31063;48.356;10.896;2022-10-31T20:30:21;28.33;;;24.67;;
45328;SDS011;31063;48.356;10.896;2022-10-31T20:32:46;33.73;;;26.87;;
45328;SDS011;31063;48.356;10.896;2022-10-31T20:35:12;29.97;;;23.67;;
45328;SDS011;31063;48.356;10.896;2022-10-31T20:37:38;32.70;;;28.10;;
45328;SDS011;31063;48.356;10.896;2022-10-31T20:40:03;34.00;;;25.60;;
45328;SDS011;31063;48.356;10.896;2022-10-31T20:42:29;29.60;;;25.08;;
45328;SDS011;31063;48.356;10.896;2022-10-31T20:44:55;30.67;;;26.30;;
45328;SDS011;31063;48.356;10.896;2022-10-31T20:47:20;28.47;;;25.37;;
45328;SDS011;31063;48.356;10.896;2022-10-31T20:49:46;32.03;;;24.33;;
45328;SDS011;31063;48.356;10.896;2022-10-31T20:52:12;30.70;;;24.53;;
45328;SDS011;31063;48.356;10.896;2022-10-31T20:54:37;29.20;;;22.40;;
45328;SDS011;31063;48.356;10.896;2022-10-31T20:57:03;28.80;;;22.57;;
45328;SDS011;31063;48.356;10.896;2022-10-31T20:59:28;24.97;;;20.50;;
45328;SDS011;31063;48.356;10.896;2022-10-31T21:01:54;24.43;;;21.40;;
45328;SDS011;31063;48.356;10.896;2022-10-31T21:04:20;27.37;;;20.83;;
45328;SDS011;31063;48.356;10.896;2022-10-31T21:06:45;27.27;;;22.23;;
45328;SDS011;31063;48.356;10.896;2022-10-31T21:09:11;26.77;;;21.67;;
45328;SDS011;31063;48.356;10.896;2022-10-31T21:11:36;27.00;;;22.23;;
45328;SDS011;31063;48.356;10.896;2022-10-31T21:14:02;28.03;;;20.57;;
45328;SDS011;31063;48.356;10.896;2022-10-31T21:16:29;23.60;;;19.80;;
45328;SDS011;31063;48.356;10.896;2022-10-31T21:18:58;27.10;;;20.73;;
45328;SDS011;31063;48.356;10.896;2022-10-31T21:21:25;24.75;;;20.67;;
45328;SDS011;31063;48.356;10.896;2022-10-31T21:26:26;31.98;;;23.35;;
45328;SDS011;31063;48.356;10.896;2022-10-31T21:28:54;31.48;;;22.02;;
45328;SDS011;31063;48.356;10.896;2022-10-31T21:31:21;37.25;;;26.40;;
45328;SDS011;31063;48.356;10.896;2022-10-31T21:33:48;37.42;;;26.33;;
45328;SDS011;31063;48.356;10.896;2022-10-31T21:36:14;46.30;;;27.03;;
45328;SDS011;31063;48.356;10.896;2022-10-31T21:38:40;69.97;;;27.15;;
45328;SDS011;31063;48.356;10.896;2022-10-31T21:41:13;67.90;;;29.25;;
45328;SDS011;31063;48.356;10.896;2022-10-31T21:43:43;40.88;;;29.83;;
45328;SDS011;31063;48.356;10.896;2022-10-31T21:46:14;62.10;;;30.10;;
45328;SDS011;31063;48.356;10.896;2022-10-31T21:48:41;45.70;;;30.80;;
45328;SDS011;31063;48.356;10.896;2022-10-31T21:51:11;53.30;;;32.05;;
45328;SDS011;31063;48.356;10.896;2022-10-31T21:53:45;56.05;;;30.23;;
45328;SDS011;31063;48.356;10.896;2022-10-31T21:56:29;40.13;;;28.08;;
45328;SDS011;31063;48.356;10.896;2022-10-31T21:58:55;67.95;;;33.13;;
45328;SDS011;31063;48.356;10.896;2022-10-31T22:01:22;51.45;;;31.05;;
45328;SDS011;31063;48.356;10.896;2022-10-31T22:03:49;56.33;;;31.35;;
45328;SDS011;31063;48.356;10.896;2022-10-31T22:06:15;43.93;;;29.23;;
45328;SDS011;31063;48.356;10.896;2022-10-31T22:08:41;42.13;;;27.55;;
45328;SDS011;31063;48.356;10.896;2022-10-31T22:11:08;43.05;;;27.23;;
45328;SDS011;31063;48.356;10.896;2022-10-31T22:13:38;37.45;;;29.30;;
45328;SDS011;31063;48.356;10.896;2022-10-31T22:16:08;35.47;;;25.88;;
45328;SDS011;31063;48.356;10.896;2022-10-31T22:18:36;34.22;;;27.40;;
45328;SDS011;31063;48.356;10.896;2022-10-31T22:21:02;30.25;;;24.33;;
45328;SDS011;31063;48.356;10.896;2022-10-31T22:23:33;28.27;;;24.95;;
45328;SDS011;31063;48.356;10.896;2022-10-31T22:26:07;23.90;;;20.75;;
45328;SDS011;31063;48.356;10.896;2022-10-31T22:28:38;24.70;;;20.02;;
45328;SDS011;31063;48.356;10.896;2022-10-31T22:31:05;25.63;;;22.55;;
45328;SDS011;31063;48.356;10.896;2022-10-31T22:33:33;25.38;;;22.05;;
45328;SDS011;31063;48.356;10.896;2022-10-31T22:36:02;26.20;;;21.48;;
45328;SDS011;31063;48.356;10.896;2022-10-31T22:38:33;22.13;;;19.67;;
45328;SDS011;31063;48.356;10.896;2022-10-31T22:41:03;26.45;;;23.15;;
45328;SDS011;31063;48.356;10.896;2022-10-31T22:45:56;23.55;;;21.02;;
45328;SDS011;31063;48.356;10.896;2022-10-31T22:48:25;28.40;;;22.50;;
45328;SDS011;31063;48.356;10.896;2022-10-31T22:50:51;27.00;;;22.13;;
45328;SDS011;31063;48.356;10.896;2022-10-31T22:53:17;25.30;;;21.47;;
45328;SDS011;31063;48.356;10.896;2022-10-31T22:55:43;23.30;;;20.80;;
45328;SDS011;31063;48.356;10.896;2022-10-31T22:58:08;27.67;;;20.30;;
45328;SDS011;31063;48.356;10.896;2022-10-31T23:00:34;27.83;;;20.47;;
45328;SDS011;31063;48.356;10.896;2022-10-31T23:03:00;22.13;;;19.40;;
45328;SDS011;31063;48.356;10.896;2022-10-31T23:05:25;22.37;;;18.43;;
45328;SDS011;31063;48.356;10.896;2022-10-31T23:07:51;25.27;;;21.90;;
45328;SDS011;31063;48.356;10.896;2022-10-31T23:10:17;22.70;;;19.07;;
45328;SDS011;31063;48.356;10.896;2022-10-31T23:12:42;26.08;;;22.42;;
45328;SDS011;31063;48.356;10.896;2022-10-31T23:15:27;25.17;;;21.33;;
45328;SDS011;31063;48.356;10.896;2022-10-31T23:17:52;24.25;;;17.92;;
45328;SDS011;31063;48.356;10.896;2022-10-31T23:20:20;20.00;;;17.73;;
45328;SDS011;31063;48.356;10.896;2022-10-31T23:22:46;19.63;;;16.48;;
45328;SDS011;31063;48.356;10.896;2022-10-31T23:25:11;20.17;;;15.73;;
45328;SDS011;31063;48.356;10.896;2022-10-31T23:27:37;23.33;;;17.37;;
45328;SDS011;31063;48.356;10.896;2022-10-31T23:30:03;21.33;;;16.97;;
45328;SDS011;31063;48.356;10.896;2022-10-31T23:35:00;21.65;;;16.85;;
45328;SDS011;31063;48.356;10.896;2022-10-31T23:37:31;25.48;;;15.25;;
45328;SDS011;31063;48.356;10.896;2022-10-31T23:39:58;20.00;;;14.02;;
45328;SDS011;31063;48.356;10.896;2022-10-31T23:42:24;22.30;;;15.18;;
45328;SDS011;31063;48.356;10.896;2022-10-31T23:44:51;20.80;;;14.90;;
45328;SDS011;31063;48.356;10.896;2022-10-31T23:47:17;20.60;;;15.27;;
45328;SDS011;31063;48.356;10.896;2022-10-31T23:49:43;17.88;;;13.98;;
45328;SDS011;31063;48.356;10.896;2022-10-31T23:52:09;20.60;;;14.98;;
45328;SDS011;31063;48.356;10.896;2022-10-31T23:54:35;20.48;;;17.40;;
45328;SDS011;31063;48.356;10.896;2022-10-31T23:57:01;17.83;;;14.47;;
45328;SDS011;31063;48.356;10.896;2022-10-31T23:59:27;21.08;;;16.15;;
